createdAt,value
2023-03-08T00:02:25.114Z,99446.41
2023-03-08T00:04:56.224Z,99448.46
2023-03-08T00:07:24.213Z,99455.10
2023-03-08T00:09:52.828Z,99452.84
2023-03-08T00:12:22.892Z,99451.84
2023-03-08T00:14:51.149Z,99455.65
2023-03-08T00:17:19.044Z,99452.98
2023-03-08T00:19:47.002Z,99449.68
2023-03-08T00:22:14.829Z,99443.34
2023-03-08T00:24:42.549Z,99442.64
2023-03-08T00:27:10.756Z,99436.04
2023-03-08T00:29:38.545Z,99436.86
2023-03-08T00:32:06.676Z,99436.11
2023-03-08T00:34:34.414Z,99428.25
2023-03-08T00:37:02.439Z,99421.61
2023-03-08T00:39:30.204Z,99421.02
2023-03-08T00:41:58.192Z,99418.79
2023-03-08T00:44:25.924Z,99412.16
2023-03-08T00:46:54.075Z,99407.78
2023-03-08T00:49:22.948Z,99400.95
2023-03-08T00:51:50.641Z,99400.20
2023-03-08T00:54:18.505Z,99394.73
2023-03-08T00:56:46.317Z,99390.30
2023-03-08T00:59:14.263Z,99386.14
2023-03-08T01:01:42.108Z,99382.41
2023-03-08T01:04:10.082Z,99382.00
2023-03-08T01:06:38.011Z,99378.79
2023-03-08T01:09:06.002Z,99379.73
2023-03-08T01:11:35.503Z,99377.98
2023-03-08T01:14:04.536Z,99374.35
2023-03-08T01:16:33.435Z,99369.06
2023-03-08T01:19:01.678Z,99364.24
2023-03-08T01:21:30.408Z,99363.52
2023-03-08T01:23:58.489Z,99359.37
2023-03-08T01:26:27.439Z,99354.81
2023-03-08T01:28:55.825Z,99356.48
2023-03-08T01:31:27.742Z,99353.20
2023-03-08T01:33:55.878Z,99350.89
2023-03-08T01:36:24.800Z,99343.89
2023-03-08T01:38:54.362Z,99334.23
2023-03-08T01:41:24.033Z,99324.48
2023-03-08T01:43:52.409Z,99311.86
2023-03-08T01:46:24.098Z,99301.84
2023-03-08T01:48:54.860Z,99296.92
2023-03-08T01:51:26.412Z,99293.27
2023-03-08T01:53:55.897Z,99293.14
2023-03-08T01:56:24.813Z,99293.74
2023-03-08T01:58:52.975Z,99290.65
2023-03-08T02:01:21.204Z,99285.40
2023-03-08T02:03:49.161Z,99279.52
2023-03-08T02:06:17.173Z,99272.80
2023-03-08T02:08:45.477Z,99266.89
2023-03-08T02:11:13.824Z,99258.53
2023-03-08T02:13:42.675Z,99254.71
2023-03-08T02:16:13.728Z,99248.23
2023-03-08T02:18:51.552Z,99246.39
2023-03-08T02:21:19.501Z,99239.92
2023-03-08T02:23:47.225Z,99237.62
2023-03-08T02:26:15.404Z,99238.86
2023-03-08T02:28:43.786Z,99239.16
2023-03-08T02:31:13.832Z,99231.51
2023-03-08T02:33:42.203Z,99224.20
2023-03-08T02:36:10.151Z,99214.48
2023-03-08T02:38:37.969Z,99204.45
2023-03-08T02:41:05.878Z,99196.30
2023-03-08T02:43:33.609Z,99181.70
2023-03-08T02:46:01.659Z,99175.45
2023-03-08T02:48:29.462Z,99176.92
2023-03-08T02:50:57.436Z,99181.17
2023-03-08T02:53:25.240Z,99175.70
2023-03-08T02:55:53.085Z,99170.30
2023-03-08T02:58:20.945Z,99166.14
2023-03-08T03:00:48.645Z,99161.40
2023-03-08T03:03:17.010Z,99152.77
2023-03-08T03:05:45.869Z,99148.52
2023-03-08T03:08:13.857Z,99146.73
2023-03-08T03:10:43.122Z,99143.45
2023-03-08T03:13:10.953Z,99144.74
2023-03-08T03:15:39.565Z,99141.59
2023-03-08T03:18:07.379Z,99138.40
2023-03-08T03:20:35.213Z,99132.82
2023-03-08T03:23:03.292Z,99120.15
2023-03-08T03:25:31.138Z,99115.05
2023-03-08T03:27:58.894Z,99105.26
2023-03-08T03:30:26.803Z,99102.08
2023-03-08T03:32:54.611Z,99094.83
2023-03-08T03:35:22.472Z,99089.45
2023-03-08T03:37:50.303Z,99080.63
2023-03-08T03:40:18.176Z,99069.45
2023-03-08T03:42:45.888Z,99065.70
2023-03-08T03:45:13.851Z,99065.19
2023-03-08T03:47:41.641Z,99063.39
2023-03-08T03:50:10.086Z,99054.95
2023-03-08T03:52:38.432Z,99053.77
2023-03-08T03:55:06.820Z,99047.66
2023-03-08T03:57:34.735Z,99044.02
2023-03-08T04:00:02.529Z,99039.70
2023-03-08T04:02:30.318Z,99038.34
2023-03-08T04:04:58.609Z,99031.16
2023-03-08T04:07:26.396Z,99029.35
2023-03-08T04:09:54.267Z,99028.88
2023-03-08T04:12:21.973Z,99024.39
2023-03-08T04:14:49.831Z,99027.28
2023-03-08T04:17:17.567Z,99025.89
2023-03-08T04:19:45.396Z,99021.67
2023-03-08T04:22:13.315Z,99022.66
2023-03-08T04:24:41.137Z,99022.88
2023-03-08T04:27:09.351Z,99027.93
2023-03-08T04:29:37.214Z,99029.90
2023-03-08T04:32:05.319Z,99021.30
2023-03-08T04:34:33.235Z,99019.02
2023-03-08T04:37:01.036Z,99014.23
2023-03-08T04:39:28.767Z,99008.91
2023-03-08T04:41:56.602Z,99008.73
2023-03-08T04:44:24.393Z,99005.72
2023-03-08T04:46:52.287Z,98996.73
2023-03-08T04:49:20.348Z,98992.83
2023-03-08T04:51:48.356Z,98983.37
2023-03-08T04:54:16.204Z,98981.30
2023-03-08T04:56:44.012Z,98978.11
2023-03-08T04:59:11.743Z,98978.80
2023-03-08T05:01:39.492Z,98974.17
2023-03-08T05:04:10.118Z,98969.96
2023-03-08T05:06:37.800Z,98972.48
2023-03-08T05:09:06.318Z,98970.40
2023-03-08T05:11:34.026Z,98970.67
2023-03-08T05:14:01.975Z,98972.85
2023-03-08T05:16:29.771Z,98972.39
2023-03-08T05:18:57.867Z,98977.09
2023-03-08T05:21:25.756Z,98974.38
2023-03-08T05:23:53.810Z,98969.11
2023-03-08T05:26:21.659Z,98963.76
2023-03-08T05:28:49.540Z,98964.05
2023-03-08T05:31:18.610Z,98968.08
2023-03-08T05:33:49.423Z,98969.31
2023-03-08T05:36:18.080Z,98970.73
2023-03-08T05:38:45.922Z,98968.64
2023-03-08T05:41:14.932Z,98965.02
2023-03-08T05:43:42.904Z,98959.30
2023-03-08T05:46:15.301Z,98946.52
2023-03-08T05:48:44.632Z,98948.11
2023-03-08T05:51:13.997Z,98955.07
2023-03-08T05:53:42.440Z,98951.73
2023-03-08T05:56:11.701Z,98944.80
2023-03-08T05:58:41.488Z,98943.50
2023-03-08T06:01:12.258Z,98946.03
2023-03-08T06:03:40.423Z,98940.05
2023-03-08T06:06:08.453Z,98936.84
2023-03-08T06:08:36.267Z,98933.70
2023-03-08T06:11:04.179Z,98934.67
2023-03-08T06:13:32.337Z,98927.94
2023-03-08T06:16:00.761Z,98926.66
2023-03-08T06:18:28.758Z,98923.26
2023-03-08T06:20:57.059Z,98921.38
2023-03-08T06:23:25.454Z,98912.00
2023-03-08T06:25:53.193Z,98908.24
2023-03-08T06:28:21.977Z,98911.09
2023-03-08T06:30:50.131Z,98905.46
2023-03-08T06:33:18.451Z,98903.16
2023-03-08T06:36:04.920Z,98902.91
2023-03-08T06:38:34.221Z,98901.38
2023-03-08T06:41:02.001Z,98905.30
2023-03-08T06:43:30.301Z,98903.64
2023-03-08T06:45:58.218Z,98898.89
2023-03-08T06:48:26.146Z,98897.42
2023-03-08T06:50:53.861Z,98897.86
2023-03-08T06:53:21.613Z,98895.79
2023-03-08T06:55:49.462Z,98902.98
2023-03-08T06:58:17.267Z,98907.41
2023-03-08T07:00:45.063Z,98907.66
2023-03-08T07:03:14.068Z,98899.95
2023-03-08T07:05:42.785Z,98898.21
2023-03-08T07:08:10.516Z,98904.85
2023-03-08T07:10:39.286Z,98896.59
2023-03-08T07:13:07.419Z,98899.41
2023-03-08T07:15:39.291Z,98906.25
2023-03-08T07:18:07.119Z,98910.16
2023-03-08T07:20:34.964Z,98908.47
2023-03-08T07:23:04.294Z,98902.81
2023-03-08T07:25:32.215Z,98900.63
2023-03-08T07:28:00.355Z,98901.95
2023-03-08T07:30:28.283Z,98904.31
2023-03-08T07:32:56.086Z,98897.47
2023-03-08T07:35:24.074Z,98891.17
2023-03-08T07:37:51.866Z,98881.55
2023-03-08T07:40:19.924Z,98884.93
2023-03-08T07:42:47.644Z,98882.94
2023-03-08T07:45:15.573Z,98887.12
2023-03-08T07:47:43.337Z,98881.63
2023-03-08T07:50:12.093Z,98883.69
2023-03-08T07:52:39.876Z,98890.82
2023-03-08T07:55:08.735Z,98894.90
2023-03-08T07:57:36.428Z,98895.95
2023-03-08T08:00:09.406Z,98882.33
2023-03-08T08:02:37.283Z,98875.08
2023-03-08T08:05:05.857Z,98876.52
2023-03-08T08:07:33.604Z,98888.48
2023-03-08T08:10:01.350Z,98905.38
2023-03-08T08:12:29.118Z,98910.95
2023-03-08T08:14:58.044Z,98911.41
2023-03-08T08:17:25.947Z,98903.65
2023-03-08T08:19:53.808Z,98892.56
2023-03-08T08:22:21.498Z,98882.48
2023-03-08T08:24:49.270Z,98872.27
2023-03-08T08:27:17.004Z,98866.87
2023-03-08T08:29:49.732Z,98871.84
2023-03-08T08:32:17.489Z,98880.45
2023-03-08T08:34:45.420Z,98882.65
2023-03-08T08:37:13.129Z,98878.77
2023-03-08T08:39:40.980Z,98881.89
2023-03-08T08:42:08.681Z,98881.98
2023-03-08T08:44:36.657Z,98888.80
2023-03-08T08:47:04.620Z,98886.99
2023-03-08T08:49:32.467Z,98893.00
2023-03-08T08:52:00.353Z,98890.16
2023-03-08T08:54:29.025Z,98897.23
2023-03-08T08:56:56.886Z,98897.96
2023-03-08T08:59:24.764Z,98895.09
2023-03-08T09:01:52.642Z,98897.04
2023-03-08T09:04:21.075Z,98897.35
2023-03-08T09:06:49.076Z,98898.84
2023-03-08T09:09:18.066Z,98901.84
2023-03-08T09:11:54.602Z,98902.64
2023-03-08T09:14:24.377Z,98902.16
2023-03-08T09:16:53.187Z,98900.70
2023-03-08T09:19:21.301Z,98893.77
2023-03-08T09:21:49.130Z,98886.76
2023-03-08T09:24:17.222Z,98872.59
2023-03-08T09:26:44.952Z,98864.02
2023-03-08T09:29:12.794Z,98842.95
2023-03-08T09:31:42.443Z,98831.54
2023-03-08T09:34:11.827Z,98832.04
2023-03-08T09:36:39.913Z,98840.34
2023-03-08T09:39:09.450Z,98849.56
2023-03-08T09:41:37.320Z,98856.60
2023-03-08T09:44:05.165Z,98868.45
2023-03-08T09:46:49.107Z,98876.88
2023-03-08T09:49:21.813Z,98878.17
2023-03-08T09:51:52.703Z,98873.67
2023-03-08T09:54:23.640Z,98869.84
2023-03-08T09:56:53.486Z,98875.52
2023-03-08T09:59:40.952Z,98880.22
2023-03-08T10:02:38.038Z,98882.08
2023-03-08T10:05:13.710Z,98873.29
2023-03-08T10:07:41.930Z,98873.19
2023-03-08T10:10:31.819Z,98869.95
2023-03-08T10:13:17.223Z,98867.44
2023-03-08T10:15:48.169Z,98869.45
2023-03-08T10:18:29.431Z,98869.89
2023-03-08T10:20:59.677Z,98866.14
2023-03-08T10:23:29.448Z,98864.27
2023-03-08T10:25:57.349Z,98862.08
2023-03-08T10:28:26.629Z,98861.45
2023-03-08T10:31:05.804Z,98861.81
2023-03-08T10:33:35.365Z,98864.20
2023-03-08T10:36:38.690Z,98856.07
2023-03-08T10:39:10.262Z,98849.36
2023-03-08T10:41:52.911Z,98841.96
2023-03-08T10:44:41.274Z,98843.54
2023-03-08T10:47:25.466Z,98838.51
2023-03-08T10:50:23.036Z,98831.02
2023-03-08T10:52:51.402Z,98830.63
2023-03-08T10:55:21.201Z,98834.88
2023-03-08T10:57:54.195Z,98831.94
2023-03-08T11:00:25.385Z,98837.75
2023-03-08T11:03:02.084Z,98836.98
2023-03-08T11:05:31.207Z,98840.83
2023-03-08T11:07:59.576Z,98844.59
2023-03-08T11:10:29.577Z,98845.91
2023-03-08T11:13:24.538Z,98842.38
2023-03-08T11:16:12.649Z,98840.33
2023-03-08T11:18:47.259Z,98842.94
2023-03-08T11:21:17.963Z,98852.86
2023-03-08T11:23:51.619Z,98854.33
2023-03-08T11:26:24.679Z,98853.67
2023-03-08T11:29:12.860Z,98848.64
2023-03-08T11:32:06.926Z,98847.01
2023-03-08T11:34:34.671Z,98843.89
2023-03-08T11:37:14.728Z,98836.98
2023-03-08T11:39:42.429Z,98829.55
2023-03-08T11:42:16.263Z,98833.50
2023-03-08T11:44:51.619Z,98843.90
2023-03-08T11:47:25.613Z,98847.81
2023-03-08T11:50:06.053Z,98848.02
2023-03-08T11:52:40.071Z,98846.60
2023-03-08T11:55:08.096Z,98847.91
2023-03-08T11:57:40.175Z,98850.78
2023-03-08T12:00:24.752Z,98844.85
2023-03-08T12:02:54.239Z,98836.67
2023-03-08T12:05:34.760Z,98832.92
2023-03-08T12:08:02.554Z,98835.35
2023-03-08T12:10:36.225Z,98841.52
2023-03-08T12:13:11.871Z,98835.89
2023-03-08T12:15:46.493Z,98839.21
2023-03-08T12:18:32.175Z,98834.91
2023-03-08T12:21:27.913Z,98831.90
2023-03-08T12:24:03.851Z,98828.89
2023-03-08T12:26:38.880Z,98830.29
2023-03-08T12:29:17.476Z,98839.45
2023-03-08T12:31:46.463Z,98836.48
2023-03-08T12:34:25.071Z,98834.59
2023-03-08T12:36:52.956Z,98829.55
2023-03-08T12:39:28.797Z,98828.69
2023-03-08T12:41:57.998Z,98835.68
2023-03-08T12:44:27.349Z,98838.45
2023-03-08T12:47:03.849Z,98839.13
2023-03-08T12:49:40.135Z,98833.54
2023-03-08T12:52:20.331Z,98827.59
2023-03-08T12:54:57.486Z,98818.10
2023-03-08T12:57:28.247Z,98812.70
2023-03-08T13:00:01.020Z,98812.70
2023-03-08T13:02:33.259Z,98813.80
2023-03-08T13:05:15.905Z,98812.37
2023-03-08T13:08:09.966Z,98821.11
2023-03-08T13:10:53.596Z,98822.21
2023-03-08T13:13:40.572Z,98806.19
2023-03-08T13:16:27.162Z,98818.95
2023-03-08T13:19:03.339Z,98819.81
2023-03-08T13:21:35.340Z,98820.17
2023-03-08T13:24:09.540Z,98811.79
2023-03-08T13:26:50.960Z,98812.75
2023-03-08T13:29:20.032Z,98813.85
2023-03-08T13:31:48.754Z,98811.84
2023-03-08T13:34:35.519Z,98811.41
2023-03-08T13:37:03.703Z,98810.37
2023-03-08T13:39:31.929Z,98802.60
2023-03-08T13:42:12.986Z,98792.66
2023-03-08T13:44:41.113Z,98791.38
2023-03-08T13:47:18.805Z,98784.90
2023-03-08T13:49:46.844Z,98772.59
2023-03-08T13:52:23.012Z,98772.23
2023-03-08T13:54:53.261Z,98770.83
2023-03-08T13:57:30.497Z,98773.70
2023-03-08T14:00:00.066Z,98767.85
2023-03-08T14:02:30.112Z,98769.17
2023-03-08T14:04:58.625Z,98774.91
2023-03-08T14:07:29.209Z,98771.11
2023-03-08T14:09:58.670Z,98769.55
2023-03-08T14:12:31.212Z,98758.38
2023-03-08T14:15:01.462Z,98752.48
2023-03-08T14:17:30.966Z,98754.13
2023-03-08T14:20:00.673Z,98759.79
2023-03-08T14:22:39.162Z,98768.48
2023-03-08T14:25:20.921Z,98766.26
2023-03-08T14:27:48.713Z,98750.06
2023-03-08T14:30:18.704Z,98752.59
2023-03-08T14:33:12.626Z,98751.23
2023-03-08T14:35:41.624Z,98757.04
2023-03-08T14:38:13.812Z,98756.78
2023-03-08T14:40:47.376Z,98747.23
2023-03-08T14:43:19.843Z,98747.17
2023-03-08T14:45:53.784Z,98745.78
2023-03-08T14:48:25.861Z,98743.16
2023-03-08T14:50:56.941Z,98734.32
2023-03-08T14:53:45.052Z,98738.90
2023-03-08T14:56:14.772Z,98734.04
2023-03-08T14:58:49.359Z,98726.11
2023-03-08T15:01:27.698Z,98719.52
2023-03-08T15:03:55.972Z,98713.95
2023-03-08T15:06:25.681Z,98713.42
2023-03-08T15:08:53.581Z,98715.41
2023-03-08T15:11:23.644Z,98725.38
2023-03-08T15:13:51.644Z,98720.92
2023-03-08T15:16:20.773Z,98714.48
2023-03-08T15:18:48.808Z,98700.98
2023-03-08T15:21:19.464Z,98696.77
2023-03-08T15:23:49.194Z,98690.77
2023-03-08T15:26:24.582Z,98695.26
2023-03-08T15:28:52.392Z,98697.04
2023-03-08T15:31:20.295Z,98694.75
2023-03-08T15:33:48.390Z,98690.60
2023-03-08T15:36:17.783Z,98692.95
2023-03-08T15:38:45.695Z,98697.27
2023-03-08T15:41:14.366Z,98695.48
2023-03-08T15:43:42.899Z,98701.74
2023-03-08T15:46:15.512Z,98703.94
2023-03-08T15:48:45.759Z,98705.58
2023-03-08T15:51:17.249Z,98705.69
2023-03-08T15:53:45.175Z,98698.60
2023-03-08T15:56:13.355Z,98704.70
2023-03-08T15:58:41.270Z,98700.20
2023-03-08T16:01:09.777Z,98699.04
2023-03-08T16:03:38.349Z,98699.10
2023-03-08T16:06:13.221Z,98702.46
2023-03-08T16:08:42.322Z,98703.71
2023-03-08T16:11:11.223Z,98702.88
2023-03-08T16:13:40.586Z,98706.50
2023-03-08T16:16:09.423Z,98709.38
2023-03-08T16:18:37.270Z,98711.54
2023-03-08T16:21:09.358Z,98713.24
2023-03-08T16:23:38.365Z,98714.86
2023-03-08T16:26:15.337Z,98713.62
2023-03-08T16:28:45.862Z,98712.56
2023-03-08T16:31:14.123Z,98714.33
2023-03-08T16:33:42.309Z,98713.60
2023-03-08T16:36:10.910Z,98714.95
2023-03-08T16:38:39.211Z,98718.70
2023-03-08T16:41:12.794Z,98713.15
2023-03-08T16:43:47.678Z,98713.88
2023-03-08T16:46:16.799Z,98709.62
2023-03-08T16:48:44.688Z,98710.42
2023-03-08T16:51:14.125Z,98701.48
2023-03-08T16:53:42.441Z,98705.12
2023-03-08T16:56:17.220Z,98702.58
2023-03-08T16:58:45.366Z,98699.94
2023-03-08T17:01:13.951Z,98696.45
2023-03-08T17:03:42.277Z,98701.66
2023-03-08T17:06:12.332Z,98702.05
2023-03-08T17:08:40.968Z,98702.15
2023-03-08T17:11:20.372Z,98697.72
2023-03-08T17:13:51.910Z,98698.17
2023-03-08T17:16:20.708Z,98697.21
2023-03-08T17:18:49.564Z,98702.58
2023-03-08T17:21:18.029Z,98707.28
2023-03-08T17:23:45.876Z,98707.06
2023-03-08T17:26:14.007Z,98702.95
2023-03-08T17:28:41.825Z,98706.85
2023-03-08T17:31:11.482Z,98709.60
2023-03-08T17:33:40.688Z,98707.67
2023-03-08T17:36:09.669Z,98707.07
2023-03-08T17:38:38.051Z,98709.48
2023-03-08T17:41:07.884Z,98711.84
2023-03-08T17:43:38.376Z,98710.13
2023-03-08T17:46:27.720Z,98706.41
2023-03-08T17:48:55.931Z,98702.36
2023-03-08T17:51:25.486Z,98706.80
2023-03-08T17:53:54.107Z,98705.77
2023-03-08T17:56:25.159Z,98699.71
2023-03-08T17:58:56.720Z,98702.27
2023-03-08T18:01:27.738Z,98704.44
2023-03-08T18:03:55.713Z,98715.98
2023-03-08T18:06:23.891Z,98718.41
2023-03-08T18:08:52.471Z,98720.20
2023-03-08T18:11:20.547Z,98720.95
2023-03-08T18:13:49.052Z,98720.48
2023-03-08T18:16:17.777Z,98729.93
2023-03-08T18:18:46.200Z,98730.87
2023-03-08T18:21:14.513Z,98726.96
2023-03-08T18:23:43.405Z,98729.95
2023-03-08T18:26:11.799Z,98732.45
2023-03-08T18:28:41.110Z,98735.39
2023-03-08T18:31:11.308Z,98728.55
2023-03-08T18:33:39.559Z,98720.15
2023-03-08T18:36:08.782Z,98711.42
2023-03-08T18:38:36.882Z,98709.89
2023-03-08T18:41:15.373Z,98705.48
2023-03-08T18:43:43.460Z,98706.48
2023-03-08T18:46:12.465Z,98699.45
2023-03-08T18:48:41.328Z,98701.66
2023-03-08T18:51:09.823Z,98702.73
2023-03-08T18:53:38.092Z,98707.59
2023-03-08T18:56:06.037Z,98708.08
2023-03-08T18:58:34.197Z,98708.56
2023-03-08T19:01:03.160Z,98711.39
2023-03-08T19:03:31.126Z,98716.87
2023-03-08T19:06:02.028Z,98723.27
2023-03-08T19:08:29.796Z,98727.59
2023-03-08T19:10:58.126Z,98728.32
2023-03-08T19:13:26.037Z,98727.56
2023-03-08T19:15:53.917Z,98733.17
2023-03-08T19:18:23.598Z,98733.19
2023-03-08T19:20:51.515Z,98734.66
2023-03-08T19:23:19.095Z,98733.57
2023-03-08T19:26:05.442Z,98734.46
2023-03-08T19:28:33.637Z,98734.73
2023-03-08T19:31:01.683Z,98734.89
2023-03-08T19:33:31.466Z,98722.40
2023-03-08T19:35:59.763Z,98723.80
2023-03-08T19:38:27.800Z,98725.54
2023-03-08T19:40:55.983Z,98725.16
2023-03-08T19:43:23.622Z,98725.27
2023-03-08T19:45:51.674Z,98727.30
2023-03-08T19:48:19.307Z,98727.14
2023-03-08T19:50:47.126Z,98734.35
2023-03-08T19:53:14.718Z,98740.95
2023-03-08T19:55:52.723Z,98742.48
2023-03-08T19:58:20.880Z,98735.25
2023-03-08T20:00:49.238Z,98735.63
2023-03-08T20:03:17.331Z,98739.20
2023-03-08T20:05:47.863Z,98738.26
2023-03-08T20:08:15.560Z,98741.05
2023-03-08T20:10:43.427Z,98739.88
2023-03-08T20:13:12.229Z,98746.77
2023-03-08T20:15:40.192Z,98753.60
2023-03-08T20:18:07.763Z,98753.33
2023-03-08T20:20:35.517Z,98756.73
2023-03-08T20:23:03.222Z,98753.69
2023-03-08T20:25:31.037Z,98753.50
2023-03-08T20:27:58.693Z,98756.09
2023-03-08T20:30:26.341Z,98752.58
2023-03-08T20:32:53.961Z,98751.70
2023-03-08T20:35:23.825Z,98757.17
2023-03-08T20:37:51.754Z,98760.96
2023-03-08T20:40:21.069Z,98759.11
2023-03-08T20:42:48.826Z,98759.66
2023-03-08T20:45:16.699Z,98758.17
2023-03-08T20:47:44.539Z,98756.63
2023-03-08T20:50:12.362Z,98760.58
2023-03-08T20:52:39.909Z,98764.35
2023-03-08T20:55:07.872Z,98764.07
2023-03-08T20:57:35.989Z,98771.70
2023-03-08T21:00:05.458Z,98768.77
2023-03-08T21:02:33.056Z,98775.14
2023-03-08T21:05:01.066Z,98781.66
2023-03-08T21:07:28.677Z,98791.45
2023-03-08T21:09:56.464Z,98799.09
2023-03-08T21:12:24.053Z,98808.33
2023-03-08T21:14:52.633Z,98801.77
2023-03-08T21:17:26.130Z,98803.02
2023-03-08T21:19:54.358Z,98804.75
2023-03-08T21:22:21.964Z,98802.60
2023-03-08T21:24:49.823Z,98807.73
2023-03-08T21:27:17.499Z,98810.35
2023-03-08T21:29:45.326Z,98809.46
2023-03-08T21:32:13.125Z,98809.59
2023-03-08T21:34:41.012Z,98808.26
2023-03-08T21:37:08.693Z,98805.85
2023-03-08T21:39:36.370Z,98815.39
2023-03-08T21:42:04.129Z,98817.36
2023-03-08T21:44:32.198Z,98812.81
2023-03-08T21:46:59.837Z,98808.63
2023-03-08T21:49:29.101Z,98812.92
2023-03-08T21:51:58.712Z,98820.39
2023-03-08T21:54:27.401Z,98825.89
2023-03-08T21:56:55.402Z,98825.89
2023-03-08T21:59:27.726Z,98824.34
2023-03-08T22:01:58.508Z,98825.58
2023-03-08T22:04:26.848Z,98832.86
2023-03-08T22:06:55.799Z,98830.83
2023-03-08T22:09:26.683Z,98836.42
2023-03-08T22:11:54.445Z,98837.23
2023-03-08T22:14:22.091Z,98832.17
2023-03-08T22:16:49.674Z,98828.03
2023-03-08T22:19:18.266Z,98831.11
2023-03-08T22:21:45.884Z,98830.91
2023-03-08T22:24:13.862Z,98829.04
2023-03-08T22:26:41.509Z,98830.19
2023-03-08T22:29:09.384Z,98831.35
2023-03-08T22:31:37.118Z,98832.17
2023-03-08T22:34:05.973Z,98824.98
2023-03-08T22:36:33.902Z,98823.63
2023-03-08T22:39:01.546Z,98832.02
2023-03-08T22:41:29.295Z,98838.50
2023-03-08T22:43:56.979Z,98842.56
2023-03-08T22:46:26.083Z,98838.33
2023-03-08T22:48:56.407Z,98830.85
2023-03-08T22:51:24.757Z,98824.27
2023-03-08T22:53:52.383Z,98821.26
2023-03-08T22:56:24.360Z,98823.07
2023-03-08T22:58:52.481Z,98821.88
2023-03-08T23:01:22.276Z,98822.91
2023-03-08T23:03:50.616Z,98824.50
2023-03-08T23:06:18.606Z,98830.92
2023-03-08T23:08:46.780Z,98841.45
2023-03-08T23:11:14.383Z,98852.84
2023-03-08T23:13:42.297Z,98858.59
2023-03-08T23:16:14.433Z,98858.58
2023-03-08T23:18:43.054Z,98857.09
2023-03-08T23:21:11.859Z,98853.70
2023-03-08T23:23:39.832Z,98844.97
2023-03-08T23:26:08.561Z,98852.55
2023-03-08T23:28:36.516Z,98860.82
2023-03-08T23:31:15.339Z,98867.88
2023-03-08T23:33:43.570Z,98871.31
2023-03-08T23:36:12.594Z,98871.20
2023-03-08T23:38:40.205Z,98867.75
2023-03-08T23:41:08.714Z,98865.41
2023-03-08T23:43:37.355Z,98862.09
2023-03-08T23:46:06.605Z,98868.04
2023-03-08T23:48:34.278Z,98875.41
2023-03-08T23:51:05.602Z,98883.41
2023-03-08T23:53:42.149Z,98894.73
2023-03-08T23:56:18.019Z,98903.34
2023-03-08T23:58:47.651Z,98909.09
